createdAt,value
2023-05-18T00:05:49.863Z,102026.09
2023-05-18T00:08:17.849Z,102028.81
2023-05-18T00:10:45.012Z,102027.66
2023-05-18T00:13:12.535Z,102033.75
2023-05-18T00:15:39.699Z,102022.44
2023-05-18T00:18:07.358Z,102020.53
2023-05-18T00:20:35.031Z,102026.53
2023-05-18T00:23:02.733Z,102017.00
2023-05-18T00:25:30.053Z,102018.88
2023-05-18T00:27:57.564Z,102010.22
2023-05-18T00:30:26.059Z,102012.00
2023-05-18T00:32:53.998Z,102013.09
2023-05-18T00:35:21.962Z,102009.56
2023-05-18T00:37:49.311Z,102005.03
2023-05-18T00:40:17.156Z,102006.00
2023-05-18T00:42:44.567Z,102009.41
2023-05-18T00:45:11.811Z,102000.66
2023-05-18T00:47:38.847Z,102006.72
2023-05-18T00:50:08.396Z,102002.97
2023-05-18T00:52:35.550Z,102001.13
2023-05-18T00:55:02.896Z,102003.75
2023-05-18T00:57:30.387Z,102011.41
2023-05-18T00:59:58.829Z,101999.41
2023-05-18T01:02:30.732Z,101993.97
2023-05-18T01:04:58.633Z,101994.72
2023-05-18T01:07:26.961Z,101997.09
2023-05-18T01:09:55.118Z,101994.41
2023-05-18T01:12:26.564Z,101994.28
2023-05-18T01:15:00.112Z,101998.59
2023-05-18T01:17:33.956Z,101989.72
2023-05-18T01:20:10.124Z,101997.69
2023-05-18T01:22:38.155Z,101993.88
2023-05-18T01:25:10.946Z,101997.19
2023-05-18T01:27:43.723Z,101991.91
2023-05-18T01:30:19.027Z,101989.81
2023-05-18T01:32:47.330Z,101990.63
2023-05-18T01:35:14.530Z,101997.47
2023-05-18T01:37:41.653Z,101994.84
2023-05-18T01:40:09.883Z,101992.13
2023-05-18T01:43:00.153Z,101999.72
2023-05-18T01:45:30.567Z,101991.66
2023-05-18T01:48:00.667Z,101986.38
2023-05-18T01:50:39.248Z,101988.66
2023-05-18T01:53:24.011Z,101989.44
2023-05-18T01:56:47.710Z,101987.53
2023-05-18T01:59:15.468Z,101963.34
2023-05-18T02:01:42.727Z,101988.16
2023-05-18T02:04:11.176Z,101989.09
2023-05-18T02:06:38.838Z,101985.47
2023-05-18T02:09:07.492Z,101990.75
2023-05-18T02:11:34.777Z,102008.75
2023-05-18T02:14:03.505Z,102007.22
2023-05-18T02:16:31.503Z,102004.31
2023-05-18T02:19:00.700Z,102011.16
2023-05-18T02:21:28.021Z,102006.03
2023-05-18T02:27:24.182Z,102008.47
2023-05-18T02:29:52.187Z,102004.81
2023-05-18T02:32:19.656Z,102007.31
2023-05-18T02:34:46.768Z,102002.00
2023-05-18T02:37:14.620Z,102003.72
2023-05-18T02:39:41.818Z,102007.13
2023-05-18T02:42:09.003Z,102004.38
2023-05-18T02:44:36.216Z,102005.13
2023-05-18T02:47:03.910Z,101999.78
2023-05-18T02:49:31.367Z,102004.88
2023-05-18T02:51:58.527Z,101993.44
2023-05-18T02:54:26.090Z,102000.34
2023-05-18T02:56:57.278Z,101995.09
2023-05-18T02:59:34.384Z,101996.69
2023-05-18T03:02:01.723Z,101997.53
2023-05-18T03:04:29.210Z,101991.41
2023-05-18T03:06:59.519Z,101999.91
2023-05-18T03:10:22.920Z,101999.16
2023-05-18T03:12:51.237Z,101998.06
2023-05-18T03:15:36.807Z,102002.53
2023-05-18T03:18:04.410Z,102003.97
2023-05-18T03:20:32.392Z,101997.03
2023-05-18T03:23:00.008Z,101998.81
2023-05-18T03:25:27.216Z,102004.88
2023-05-18T03:27:59.302Z,102000.69
2023-05-18T03:30:26.745Z,101991.72
2023-05-18T03:32:54.605Z,101999.28
2023-05-18T03:35:21.789Z,101999.22
2023-05-18T03:38:23.983Z,102003.00
2023-05-18T03:40:58.330Z,102008.22
2023-05-18T03:43:30.050Z,102002.66
2023-05-18T03:45:58.570Z,102002.50
2023-05-18T03:48:27.833Z,102005.03
2023-05-18T03:50:55.214Z,102003.41
2023-05-18T03:53:22.752Z,102004.22
2023-05-18T03:55:52.197Z,101997.81
2023-05-18T03:58:23.640Z,102003.06
2023-05-18T04:00:51.166Z,102000.53
2023-05-18T04:03:18.618Z,102001.41
2023-05-18T04:06:19.660Z,102003.91
2023-05-18T04:08:47.642Z,102004.75
2023-05-18T04:11:14.791Z,101998.69
2023-05-18T04:13:42.277Z,102004.75
2023-05-18T04:16:14.018Z,102009.19
2023-05-18T04:18:41.915Z,102014.38
2023-05-18T04:21:10.055Z,102005.38
2023-05-18T04:23:39.584Z,102020.97
2023-05-18T04:26:08.276Z,102016.78
2023-05-18T04:28:35.835Z,102017.41
2023-05-18T04:31:03.694Z,102019.31
2023-05-18T04:33:49.442Z,102020.91
2023-05-18T04:39:49.983Z,102028.88
2023-05-18T04:42:19.029Z,102038.28
2023-05-18T04:48:42.143Z,102040.88
2023-05-18T04:51:09.315Z,102044.47
2023-05-18T04:53:39.166Z,102048.84
2023-05-18T04:56:06.887Z,102052.41
2023-05-18T04:58:35.821Z,102053.38
2023-05-18T05:01:08.147Z,102050.63
2023-05-18T05:06:19.014Z,102048.59
2023-05-18T05:08:55.894Z,102050.31
2023-05-18T05:18:39.217Z,102051.84
2023-05-18T05:28:26.166Z,102057.59
2023-05-18T05:30:58.106Z,102062.72
2023-05-18T05:33:31.300Z,102070.03
2023-05-18T05:36:12.561Z,102073.63
2023-05-18T05:38:43.526Z,102077.47
2023-05-18T05:41:12.679Z,102074.53
2023-05-18T05:43:41.422Z,102081.66
2023-05-18T05:49:42.450Z,102077.72
2023-05-18T05:52:10.329Z,102076.19
2023-05-18T05:54:41.319Z,102078.91
2023-05-18T05:57:12.303Z,102072.22
2023-05-18T05:59:39.587Z,102084.53
2023-05-18T06:02:30.101Z,102081.34
2023-05-18T06:05:04.595Z,102074.81
2023-05-18T06:07:32.886Z,102076.66
2023-05-18T06:10:01.314Z,102079.56
2023-05-18T06:12:30.230Z,102084.28
2023-05-18T06:15:04.673Z,102079.75
2023-05-18T06:17:34.292Z,102081.72
2023-05-18T06:20:10.443Z,102083.00
2023-05-18T06:22:41.283Z,102085.44
2023-05-18T06:25:22.220Z,102089.19
2023-05-18T06:28:06.388Z,102077.91
2023-05-18T06:30:44.195Z,102081.22
2023-05-18T06:33:32.100Z,102086.47
2023-05-18T06:35:59.680Z,102076.00
2023-05-18T06:38:32.102Z,102076.97
2023-05-18T06:40:59.710Z,102081.38
2023-05-18T06:43:37.312Z,102079.38
2023-05-18T06:46:22.303Z,102088.22
2023-05-18T06:48:55.115Z,102093.06
2023-05-18T06:51:23.750Z,102087.31
2023-05-18T06:53:51.594Z,102092.78
2023-05-18T06:56:21.261Z,102095.00
2023-05-18T06:58:51.110Z,102096.03
2023-05-18T07:01:19.861Z,102095.59
2023-05-18T07:03:47.881Z,102096.94
2023-05-18T07:06:16.256Z,102096.66
2023-05-18T07:08:45.900Z,102092.72
2023-05-18T07:11:17.482Z,102094.72
2023-05-18T07:13:46.616Z,102097.84
2023-05-18T07:16:14.083Z,102092.72
2023-05-18T07:18:42.650Z,102097.75
2023-05-18T07:21:10.817Z,102091.19
2023-05-18T07:23:38.450Z,102095.06
2023-05-18T07:26:09.195Z,102089.34
2023-05-18T07:28:36.770Z,102100.31
2023-05-18T07:31:05.713Z,102088.16
2023-05-18T07:33:34.510Z,102086.63
2023-05-18T07:36:02.891Z,102087.78
2023-05-18T07:38:30.449Z,102078.31
2023-05-18T07:41:28.925Z,102084.69
2023-05-18T07:43:58.167Z,102066.63
2023-05-18T07:46:26.088Z,102067.06
2023-05-18T07:48:53.268Z,102072.31
2023-05-18T07:51:20.421Z,102071.75
2023-05-18T07:53:47.687Z,102067.06
2023-05-18T07:56:15.807Z,102065.28
2023-05-18T07:58:43.364Z,102068.84
2023-05-18T08:01:10.394Z,102056.63
2023-05-18T08:03:39.199Z,102071.47
2023-05-18T08:06:06.649Z,102056.69
2023-05-18T08:08:37.762Z,102066.00
2023-05-18T08:11:06.912Z,102058.16
2023-05-18T08:13:35.313Z,102059.34
2023-05-18T08:16:11.933Z,102064.75
2023-05-18T08:18:40.419Z,102069.78
2023-05-18T08:21:13.417Z,102056.88
2023-05-18T08:23:55.237Z,102062.38
2023-05-18T08:26:27.719Z,102057.22
2023-05-18T08:32:20.979Z,102056.38
2023-05-18T08:34:51.680Z,102061.00
2023-05-18T08:40:53.118Z,102060.44
2023-05-18T08:43:34.780Z,102053.59
2023-05-18T08:46:11.655Z,102055.81
2023-05-18T08:48:39.282Z,102050.69
2023-05-18T08:51:07.056Z,102044.00
2023-05-18T08:53:34.423Z,102048.63
2023-05-18T08:56:28.310Z,102046.16
2023-05-18T08:58:57.057Z,102053.22
2023-05-18T09:01:30.861Z,102048.91
2023-05-18T09:04:00.189Z,102048.91
2023-05-18T09:06:28.682Z,102055.22
2023-05-18T09:09:01.349Z,102047.09
2023-05-18T09:11:29.897Z,102039.25
2023-05-18T09:13:58.078Z,102043.91
2023-05-18T09:16:26.731Z,102035.00
2023-05-18T09:18:55.187Z,102038.66
2023-05-18T09:24:57.536Z,102039.03
2023-05-18T09:27:25.555Z,102032.03
2023-05-18T09:29:56.765Z,102031.16
2023-05-18T09:32:25.421Z,102037.38
2023-05-18T09:34:55.999Z,102036.59
2023-05-18T09:37:24.831Z,102034.78
2023-05-18T09:40:03.345Z,102030.31
2023-05-18T09:42:41.586Z,102037.41
2023-05-18T09:45:13.003Z,102036.44
2023-05-18T09:47:40.582Z,102026.78
2023-05-18T09:50:09.049Z,102032.09
2023-05-18T09:52:49.735Z,102026.75
2023-05-18T09:55:18.700Z,102030.41
2023-05-18T09:57:47.147Z,102017.22
2023-05-18T10:00:16.772Z,102019.03
2023-05-18T10:02:49.265Z,102020.94
2023-05-18T10:05:24.876Z,102018.31
2023-05-18T10:07:55.994Z,102018.28
2023-05-18T10:10:24.466Z,102007.69
2023-05-18T10:12:51.709Z,102012.13
2023-05-18T10:15:24.354Z,102015.69
2023-05-18T10:17:55.472Z,102015.66
2023-05-18T10:20:28.743Z,102001.59
2023-05-18T10:23:21.880Z,102008.66
2023-05-18T10:25:50.379Z,102007.75
2023-05-18T10:28:26.947Z,101998.03
2023-05-18T10:30:55.738Z,102000.66
2023-05-18T10:33:57.460Z,101998.09
2023-05-18T10:36:26.833Z,101986.59
2023-05-18T10:38:54.309Z,101996.34
2023-05-18T10:41:23.828Z,101987.50
2023-05-18T10:43:52.977Z,101979.56
2023-05-18T10:46:22.281Z,101978.69
2023-05-18T10:48:54.077Z,101990.13
2023-05-18T10:51:26.701Z,101984.84
2023-05-18T10:53:56.334Z,101984.88
2023-05-18T10:56:24.743Z,101985.72
2023-05-18T10:58:57.499Z,101976.91
2023-05-18T11:01:26.086Z,101964.53
2023-05-18T11:07:22.177Z,101968.94
2023-05-18T11:10:19.587Z,101973.34
2023-05-18T11:12:48.242Z,101979.53
2023-05-18T11:15:17.863Z,101971.56
2023-05-18T11:17:45.428Z,101967.09
2023-05-18T11:20:13.979Z,101970.63
2023-05-18T11:22:48.928Z,101968.84
2023-05-18T11:25:26.719Z,101975.13
2023-05-18T11:27:55.740Z,101971.56
2023-05-18T11:30:32.036Z,101964.50
2023-05-18T11:33:20.836Z,101971.56
2023-05-18T11:35:59.350Z,101962.75
2023-05-18T11:38:47.728Z,101960.13
2023-05-18T11:41:34.387Z,101963.66
2023-05-18T11:44:10.183Z,101953.00
2023-05-18T11:46:39.067Z,101956.50
2023-05-18T11:49:09.995Z,101955.59
2023-05-18T11:52:07.452Z,101953.81
2023-05-18T11:54:38.337Z,101959.09
2023-05-18T12:00:38.484Z,101946.66
2023-05-18T12:03:07.088Z,101946.59
2023-05-18T12:05:36.269Z,101949.31
2023-05-18T12:08:04.994Z,101952.84
2023-05-18T12:10:35.178Z,101951.13
2023-05-18T12:13:04.357Z,101953.81
2023-05-18T12:15:31.914Z,101937.88
2023-05-18T12:17:59.342Z,101944.06
2023-05-18T12:20:29.486Z,101947.59
2023-05-18T12:22:57.372Z,101942.22
2023-05-18T12:25:25.170Z,101934.19
2023-05-18T12:27:54.683Z,101924.34
2023-05-18T12:30:24.153Z,101932.47
2023-05-18T12:32:54.008Z,101943.13
2023-05-18T12:35:25.699Z,101936.88
2023-05-18T12:37:57.268Z,101923.56
2023-05-18T12:40:25.871Z,101931.50
2023-05-18T12:43:05.285Z,101937.78
2023-05-18T12:45:35.235Z,101933.31
2023-05-18T12:48:09.655Z,101933.44
2023-05-18T12:54:33.321Z,101921.88
2023-05-18T12:57:08.809Z,101909.41
2023-05-18T12:59:37.502Z,101911.06
2023-05-18T13:02:05.250Z,101914.56
2023-05-18T13:04:36.992Z,101918.06
2023-05-18T13:10:33.913Z,101912.75
2023-05-18T13:25:54.003Z,101910.25
2023-05-18T13:28:27.687Z,101896.88
2023-05-18T13:30:56.265Z,101893.19
2023-05-18T13:33:24.170Z,101892.28
2023-05-18T13:35:51.207Z,101884.13
2023-05-18T13:38:19.447Z,101890.28
2023-05-18T13:40:47.848Z,101885.25
2023-05-18T13:43:16.995Z,101887.94
2023-05-18T13:45:45.637Z,101876.25
2023-05-18T13:48:15.047Z,101877.94
2023-05-18T13:50:43.332Z,101874.44
2023-05-18T13:53:11.933Z,101866.50
2023-05-18T13:55:40.871Z,101857.72
2023-05-18T13:58:09.529Z,101869.31
2023-05-18T14:00:38.374Z,101869.22
2023-05-18T14:03:07.440Z,101862.03
2023-05-18T14:05:35.850Z,101868.34
2023-05-18T14:08:06.315Z,101870.81
2023-05-18T14:10:34.624Z,101864.03
2023-05-18T14:13:02.289Z,101864.00
2023-05-18T14:15:30.426Z,101863.44
2023-05-18T14:17:59.330Z,101858.00
2023-05-18T14:20:27.572Z,101855.56
2023-05-18T14:22:55.045Z,101852.03
2023-05-18T14:25:27.859Z,101864.47
2023-05-18T14:27:56.539Z,101858.16
2023-05-18T14:30:25.378Z,101859.25
2023-05-18T14:33:01.490Z,101849.47
2023-05-18T14:35:29.933Z,101854.78
2023-05-18T14:37:59.277Z,101855.78
2023-05-18T14:40:26.426Z,101850.41
2023-05-18T14:42:54.305Z,101860.97
2023-05-18T14:45:24.886Z,101853.84
2023-05-18T14:47:56.115Z,101847.66
2023-05-18T14:50:25.765Z,101844.91
2023-05-18T14:52:55.071Z,101859.09
2023-05-18T14:55:28.261Z,101844.94
2023-05-18T14:57:55.717Z,101843.94
2023-05-18T15:00:26.833Z,101840.53
2023-05-18T15:02:55.710Z,101840.50
2023-05-18T15:05:23.588Z,101833.44
2023-05-18T15:07:51.731Z,101845.06
2023-05-18T15:10:21.901Z,101836.22
2023-05-18T15:12:50.401Z,101845.97
2023-05-18T15:15:18.839Z,101830.06
2023-05-18T15:17:47.513Z,101835.28
2023-05-18T15:20:15.366Z,101838.91
2023-05-18T15:22:44.031Z,101832.72
2023-05-18T15:25:11.789Z,101837.13
2023-05-18T15:27:39.982Z,101838.91
2023-05-18T15:30:13.866Z,101831.06
2023-05-18T15:32:46.219Z,101831.94
2023-05-18T15:35:18.121Z,101827.53
2023-05-18T15:37:50.150Z,101832.84
2023-05-18T15:40:21.934Z,101829.31
2023-05-18T15:42:53.539Z,101818.59
2023-05-18T15:45:22.426Z,101819.41
2023-05-18T15:47:50.760Z,101820.34
2023-05-18T15:50:20.412Z,101831.03
2023-05-18T15:52:49.331Z,101815.97
2023-05-18T15:55:17.921Z,101818.63
2023-05-18T15:57:47.008Z,101824.81
2023-05-18T16:00:15.950Z,101829.22
2023-05-18T16:02:44.331Z,101831.03
2023-05-18T16:05:13.233Z,101833.72
2023-05-18T16:07:43.994Z,101839.94
2023-05-18T16:10:12.773Z,101837.25
2023-05-18T16:12:40.891Z,101840.81
2023-05-18T16:15:12.276Z,101849.66
2023-05-18T16:17:40.461Z,101844.38
2023-05-18T16:20:10.203Z,101843.47
2023-05-18T16:22:39.228Z,101841.72
2023-05-18T16:25:07.721Z,101845.25
2023-05-18T16:27:36.127Z,101839.91
2023-05-18T16:30:05.153Z,101836.38
2023-05-18T16:32:34.256Z,101829.31
2023-05-18T16:35:03.748Z,101839.06
2023-05-18T16:37:32.315Z,101847.03
2023-05-18T16:40:00.936Z,101847.88
2023-05-18T16:42:32.923Z,101838.16
2023-05-18T16:45:01.341Z,101835.47
2023-05-18T16:47:30.246Z,101839.91
2023-05-18T16:49:57.525Z,101840.75
2023-05-18T16:52:28.504Z,101831.94
2023-05-18T16:54:57.720Z,101846.91
2023-05-18T16:57:27.860Z,101846.00
2023-05-18T17:00:01.254Z,101841.59
2023-05-18T17:02:32.910Z,101844.19
2023-05-18T17:05:01.683Z,101828.31
2023-05-18T17:07:28.827Z,101833.63
2023-05-18T17:09:56.784Z,101832.78
2023-05-18T17:12:24.709Z,101846.03
2023-05-18T17:14:52.435Z,101838.09
2023-05-18T17:17:19.715Z,101833.69
2023-05-18T17:19:50.725Z,101831.88
2023-05-18T17:22:23.855Z,101835.44
2023-05-18T17:24:53.049Z,101837.22
2023-05-18T17:27:22.142Z,101842.50
2023-05-18T17:29:51.024Z,101843.38
2023-05-18T17:32:18.398Z,101843.38
2023-05-18T17:34:58.156Z,101842.50
2023-05-18T17:37:27.062Z,101858.34
2023-05-18T17:39:56.533Z,101854.75
2023-05-18T17:42:24.225Z,101854.72
2023-05-18T17:44:52.696Z,101843.28
2023-05-18T17:47:29.881Z,101844.97
2023-05-18T17:49:57.626Z,101851.09
2023-05-18T17:52:26.156Z,101843.97
2023-05-18T17:54:54.655Z,101847.41
2023-05-18T17:57:23.501Z,101850.00
2023-05-18T17:59:51.734Z,101862.44
2023-05-18T18:02:21.092Z,101857.97
2023-05-18T18:04:50.198Z,101860.56
2023-05-18T18:07:18.714Z,101861.44
2023-05-18T18:09:46.801Z,101871.13
2023-05-18T18:12:14.219Z,101874.59
2023-05-18T18:14:42.883Z,101879.97
2023-05-18T18:17:23.856Z,101882.56
2023-05-18T18:20:01.484Z,101878.09
2023-05-18T18:22:29.206Z,101875.41
2023-05-18T18:25:04.046Z,101871.78
2023-05-18T18:27:41.417Z,101877.03
2023-05-18T18:30:09.409Z,101881.44
2023-05-18T18:32:36.565Z,101883.09
2023-05-18T18:35:04.151Z,101882.22
2023-05-18T18:37:33.288Z,101888.34
2023-05-18T18:40:03.422Z,101884.84
2023-05-18T18:42:32.051Z,101893.59
2023-05-18T18:45:00.839Z,101888.31
2023-05-18T18:50:11.862Z,101897.00
2023-05-18T18:52:39.656Z,101894.34
2023-05-18T18:55:07.066Z,101897.84
2023-05-18T18:57:37.563Z,101903.88
2023-05-18T19:00:08.150Z,101901.38
2023-05-18T19:02:35.575Z,101900.34
2023-05-18T19:05:03.327Z,101900.31
2023-05-18T19:07:35.231Z,101902.84
2023-05-18T19:10:04.262Z,101903.69
2023-05-18T19:12:32.771Z,101912.50
2023-05-18T19:14:59.992Z,101912.44
2023-05-18T19:17:30.711Z,101910.59
2023-05-18T19:20:01.475Z,101911.47
2023-05-18T19:22:29.154Z,101914.03
2023-05-18T19:24:56.617Z,101915.66
2023-05-18T19:27:25.609Z,101908.63
2023-05-18T19:29:53.063Z,101919.06
2023-05-18T19:32:20.968Z,101915.38
2023-05-18T19:34:48.165Z,101911.81
2023-05-18T19:37:15.609Z,101923.16
2023-05-18T19:39:49.144Z,101915.06
2023-05-18T19:42:23.451Z,101920.25
2023-05-18T19:44:57.434Z,101920.84
2023-05-18T19:47:27.722Z,101924.31
2023-05-18T19:49:56.208Z,101926.09
2023-05-18T19:52:23.567Z,101934.03
2023-05-18T19:54:51.697Z,101938.38
2023-05-18T19:57:21.380Z,101934.88
2023-05-18T19:59:51.079Z,101940.09
2023-05-18T20:02:22.232Z,101946.16
2023-05-18T20:04:50.483Z,101955.78
2023-05-18T20:07:18.603Z,101956.47
2023-05-18T20:09:46.537Z,101958.16
2023-05-18T20:12:15.312Z,101957.03
2023-05-18T20:14:45.584Z,101954.41
2023-05-18T20:17:14.540Z,101962.16
2023-05-18T20:19:50.939Z,101958.22
2023-05-18T20:22:19.285Z,101957.41
2023-05-18T20:24:49.544Z,101959.84
2023-05-18T20:27:17.444Z,101961.66
2023-05-18T20:29:47.891Z,101967.66
2023-05-18T20:32:15.565Z,101970.09
2023-05-18T20:34:45.008Z,101973.53
2023-05-18T20:37:17.843Z,101975.19
2023-05-18T20:39:51.246Z,101978.31
2023-05-18T20:42:31.554Z,101982.56
2023-05-18T20:44:59.890Z,101978.97
2023-05-18T20:47:28.117Z,101983.16
2023-05-18T20:49:59.148Z,101985.78
2023-05-18T20:52:29.244Z,101987.44
2023-05-18T20:54:56.675Z,101982.13
2023-05-18T20:57:23.969Z,101980.81
2023-05-18T20:59:51.891Z,101983.38
2023-05-18T21:02:20.251Z,101989.34
2023-05-18T21:04:47.620Z,101992.09
2023-05-18T21:07:16.846Z,101995.22
2023-05-18T21:09:44.484Z,101994.91
2023-05-18T21:12:11.878Z,101990.56
2023-05-18T21:14:39.067Z,101995.84
2023-05-18T21:17:07.018Z,101991.19
2023-05-18T21:19:34.294Z,102001.00
2023-05-18T21:22:01.892Z,102000.38
2023-05-18T21:24:29.109Z,102001.41
2023-05-18T21:26:56.456Z,102003.25
2023-05-18T21:29:23.954Z,102005.16
2023-05-18T21:31:51.350Z,102000.53
2023-05-18T21:34:28.763Z,101995.09
2023-05-18T21:36:57.113Z,102006.31
2023-05-18T21:39:24.770Z,102005.38
2023-05-18T21:41:53.367Z,102023.03
2023-05-18T21:44:20.796Z,102011.56
2023-05-18T21:46:48.251Z,102022.63
2023-05-18T21:49:15.854Z,102018.88
2023-05-18T21:51:43.405Z,102016.66
2023-05-18T21:54:10.720Z,102019.38
2023-05-18T21:56:38.449Z,102010.75
2023-05-18T21:59:06.521Z,102007.75
2023-05-18T22:01:34.246Z,102005.13
2023-05-18T22:04:01.682Z,102010.22
2023-05-18T22:06:29.242Z,102007.34
2023-05-18T22:08:56.633Z,102009.22
2023-05-18T22:11:24.396Z,102014.75
2023-05-18T22:13:52.681Z,102008.56
2023-05-18T22:16:19.923Z,102002.59
2023-05-18T22:18:47.323Z,102004.94
2023-05-18T22:21:14.852Z,102003.88
2023-05-18T22:23:42.718Z,102007.56
2023-05-18T22:26:10.308Z,101998.19
2023-05-18T22:28:37.675Z,101999.38
2023-05-18T22:31:05.000Z,102004.81
2023-05-18T22:33:32.168Z,102004.53
2023-05-18T22:35:59.411Z,102003.66
2023-05-18T22:38:27.311Z,101999.97
2023-05-18T22:40:54.922Z,102010.41
2023-05-18T22:43:22.447Z,102007.50
2023-05-18T22:45:50.227Z,102004.88
2023-05-18T22:48:17.549Z,102008.78
2023-05-18T22:50:45.897Z,102006.03
2023-05-18T22:53:13.469Z,102003.75
2023-05-18T22:55:41.208Z,102011.66
2023-05-18T22:58:08.578Z,102004.94
2023-05-18T23:00:37.408Z,102002.44
2023-05-18T23:03:05.047Z,101992.50
2023-05-18T23:05:33.193Z,101993.44
2023-05-18T23:08:03.725Z,101999.84
2023-05-18T23:10:31.259Z,102002.63
2023-05-18T23:12:58.968Z,101995.91
2023-05-18T23:15:26.611Z,102004.81
2023-05-18T23:17:56.461Z,102001.94
2023-05-18T23:20:24.069Z,102004.41
2023-05-18T23:22:52.047Z,102004.34
2023-05-18T23:25:19.961Z,102005.13
2023-05-18T23:27:47.163Z,102008.47
2023-05-18T23:30:14.684Z,102004.13
2023-05-18T23:32:42.310Z,102004.09
2023-05-18T23:35:11.335Z,102001.09
2023-05-18T23:37:42.426Z,101999.75
2023-05-18T23:40:11.074Z,102004.75
2023-05-18T23:42:39.262Z,102002.59
2023-05-18T23:45:07.195Z,101999.31
2023-05-18T23:47:34.503Z,102008.88
2023-05-18T23:50:02.064Z,102007.78
2023-05-18T23:52:30.206Z,101998.16
2023-05-18T23:54:59.035Z,102005.88
2023-05-18T23:57:27.029Z,102003.72
2023-05-18T23:59:55.676Z,102009.31
